sensor_id;sensor_type;location;lat;lon;timestamp;temperature;humidity
13802;DHT22;6972;51.518;6.918;2022-12-19T00:00:48;2.10;99.90
13802;DHT22;6972;51.518;6.918;2022-12-19T00:03:14;2.10;99.90
13802;DHT22;6972;51.518;6.918;2022-12-19T00:05:41;2.10;99.90
13802;DHT22;6972;51.518;6.918;2022-12-19T00:08:13;2.10;99.90
13802;DHT22;6972;51.518;6.918;2022-12-19T00:10:39;2.20;99.90
13802;DHT22;6972;51.518;6.918;2022-12-19T00:13:05;2.20;99.90
13802;DHT22;6972;51.518;6.918;2022-12-19T00:15:32;2.30;99.90
13802;DHT22;6972;51.518;6.918;2022-12-19T00:20:26;2.30;99.90
13802;DHT22;6972;51.518;6.918;2022-12-19T00:22:51;2.70;99.90
13802;DHT22;6972;51.518;6.918;2022-12-19T00:25:17;2.30;99.90
13802;DHT22;6972;51.518;6.918;2022-12-19T00:27:44;2.40;99.90
13802;DHT22;6972;51.518;6.918;2022-12-19T00:30:10;2.30;99.90
13802;DHT22;6972;51.518;6.918;2022-12-19T00:32:36;2.40;99.90
13802;DHT22;6972;51.518;6.918;2022-12-19T00:47:12;2.50;99.90
13802;DHT22;6972;51.518;6.918;2022-12-19T00:49:38;2.50;99.90
13802;DHT22;6972;51.518;6.918;2022-12-19T00:52:03;2.50;99.90
13802;DHT22;6972;51.518;6.918;2022-12-19T00:56:55;2.60;99.90
13802;DHT22;6972;51.518;6.918;2022-12-19T00:59:20;2.60;99.90
13802;DHT22;6972;51.518;6.918;2022-12-19T01:01:46;2.60;99.90
13802;DHT22;6972;51.518;6.918;2022-12-19T01:04:13;2.70;99.90
13802;DHT22;6972;51.518;6.918;2022-12-19T01:09:05;2.70;99.90
13802;DHT22;6972;51.518;6.918;2022-12-19T01:11:33;2.70;99.90
13802;DHT22;6972;51.518;6.918;2022-12-19T01:14:17;2.80;99.90
13802;DHT22;6972;51.518;6.918;2022-12-19T01:16:43;2.80;99.90
13802;DHT22;6972;51.518;6.918;2022-12-19T01:19:09;4.70;99.90
13802;DHT22;6972;51.518;6.918;2022-12-19T01:24:01;2.90;99.90
13802;DHT22;6972;51.518;6.918;2022-12-19T01:26:28;2.90;99.90
13802;DHT22;6972;51.518;6.918;2022-12-19T01:28:53;3.00;99.90
13802;DHT22;6972;51.518;6.918;2022-12-19T01:38:37;3.10;99.90
13802;DHT22;6972;51.518;6.918;2022-12-19T01:41:03;3.20;99.90
13802;DHT22;6972;51.518;6.918;2022-12-19T01:43:31;3.20;99.90
13802;DHT22;6972;51.518;6.918;2022-12-19T01:45:59;3.10;99.90
13802;DHT22;6972;51.518;6.918;2022-12-19T01:48:30;3.20;99.90
13802;DHT22;6972;51.518;6.918;2022-12-19T01:51:06;3.20;99.90
13802;DHT22;6972;51.518;6.918;2022-12-19T01:53:39;3.20;99.90
13802;DHT22;6972;51.518;6.918;2022-12-19T01:56:06;3.20;99.90
13802;DHT22;6972;51.518;6.918;2022-12-19T01:58:34;3.20;99.90
13802;DHT22;6972;51.518;6.918;2022-12-19T02:03:28;3.20;99.90
13802;DHT22;6972;51.518;6.918;2022-12-19T02:05:56;3.20;99.90
13802;DHT22;6972;51.518;6.918;2022-12-19T02:08:23;3.30;99.90
13802;DHT22;6972;51.518;6.918;2022-12-19T02:10:49;3.20;99.90
13802;DHT22;6972;51.518;6.918;2022-12-19T02:13:15;3.20;99.90
13802;DHT22;6972;51.518;6.918;2022-12-19T02:34:57;3.60;99.90
13802;DHT22;6972;51.518;6.918;2022-12-19T02:37:30;3.70;99.90
13802;DHT22;6972;51.518;6.918;2022-12-19T02:40:05;3.80;99.90
13802;DHT22;6972;51.518;6.918;2022-12-19T02:42:43;3.80;99.90
13802;DHT22;6972;51.518;6.918;2022-12-19T02:45:13;3.70;99.90
13802;DHT22;6972;51.518;6.918;2022-12-19T02:47:39;3.80;99.90
13802;DHT22;6972;51.518;6.918;2022-12-19T02:50:06;3.80;99.90
13802;DHT22;6972;51.518;6.918;2022-12-19T02:55:12;5.60;99.90
13802;DHT22;6972;51.518;6.918;2022-12-19T02:57:56;3.90;99.90
13802;DHT22;6972;51.518;6.918;2022-12-19T03:00:26;3.90;99.90
13802;DHT22;6972;51.518;6.918;2022-12-19T03:06:01;4.00;99.90
13802;DHT22;6972;51.518;6.918;2022-12-19T03:08:45;4.10;99.90
13802;DHT22;6972;51.518;6.918;2022-12-19T03:11:13;4.20;99.90
13802;DHT22;6972;51.518;6.918;2022-12-19T03:13:58;4.20;99.90
13802;DHT22;6972;51.518;6.918;2022-12-19T03:18:53;4.20;99.90
13802;DHT22;6972;51.518;6.918;2022-12-19T03:21:28;4.30;99.90
13802;DHT22;6972;51.518;6.918;2022-12-19T03:26:25;4.20;99.90
13802;DHT22;6972;51.518;6.918;2022-12-19T03:29:12;4.20;99.90
13802;DHT22;6972;51.518;6.918;2022-12-19T03:31:39;4.20;99.90
13802;DHT22;6972;51.518;6.918;2022-12-19T03:37:14;4.20;99.90
13802;DHT22;6972;51.518;6.918;2022-12-19T03:39:45;4.20;99.90
13802;DHT22;6972;51.518;6.918;2022-12-19T03:42:14;4.20;99.90
13802;DHT22;6972;51.518;6.918;2022-12-19T03:45:03;4.20;99.90
13802;DHT22;6972;51.518;6.918;2022-12-19T03:47:57;4.30;99.90
13802;DHT22;6972;51.518;6.918;2022-12-19T03:50:24;4.30;99.90
13802;DHT22;6972;51.518;6.918;2022-12-19T03:53:07;4.30;99.90
13802;DHT22;6972;51.518;6.918;2022-12-19T03:55:53;4.30;99.90
13802;DHT22;6972;51.518;6.918;2022-12-19T03:58:33;4.30;99.90
13802;DHT22;6972;51.518;6.918;2022-12-19T04:01:02;4.30;99.90
13802;DHT22;6972;51.518;6.918;2022-12-19T04:03:30;4.30;99.90
13802;DHT22;6972;51.518;6.918;2022-12-19T04:05:57;4.30;99.90
13802;DHT22;6972;51.518;6.918;2022-12-19T04:08:24;4.30;99.90
13802;DHT22;6972;51.518;6.918;2022-12-19T04:10:54;4.30;99.90
13802;DHT22;6972;51.518;6.918;2022-12-19T04:13:36;4.30;99.90
13802;DHT22;6972;51.518;6.918;2022-12-19T04:18:38;4.40;99.90
13802;DHT22;6972;51.518;6.918;2022-12-19T04:21:10;4.40;99.90
13802;DHT22;6972;51.518;6.918;2022-12-19T04:23:41;4.40;99.90
13802;DHT22;6972;51.518;6.918;2022-12-19T04:26:09;4.40;99.90
13802;DHT22;6972;51.518;6.918;2022-12-19T04:28:49;4.40;99.90
13802;DHT22;6972;51.518;6.918;2022-12-19T04:31:15;4.30;99.90
13802;DHT22;6972;51.518;6.918;2022-12-19T04:36:09;4.30;99.90
13802;DHT22;6972;51.518;6.918;2022-12-19T04:38:35;4.30;99.90
13802;DHT22;6972;51.518;6.918;2022-12-19T04:41:01;4.30;99.90
13802;DHT22;6972;51.518;6.918;2022-12-19T04:45:52;4.30;99.90
13802;DHT22;6972;51.518;6.918;2022-12-19T04:48:18;4.40;99.90
13802;DHT22;6972;51.518;6.918;2022-12-19T04:50:43;4.30;99.90
13802;DHT22;6972;51.518;6.918;2022-12-19T04:55:35;4.40;99.90
13802;DHT22;6972;51.518;6.918;2022-12-19T05:07:44;4.50;99.90
13802;DHT22;6972;51.518;6.918;2022-12-19T05:10:11;4.20;99.90
13802;DHT22;6972;51.518;6.918;2022-12-19T05:15:03;4.60;99.90
13802;DHT22;6972;51.518;6.918;2022-12-19T05:17:30;4.50;99.90
13802;DHT22;6972;51.518;6.918;2022-12-19T05:27:13;4.50;99.90
13802;DHT22;6972;51.518;6.918;2022-12-19T05:29:39;4.40;99.90
13802;DHT22;6972;51.518;6.918;2022-12-19T05:34:31;4.30;99.90
13802;DHT22;6972;51.518;6.918;2022-12-19T05:36:57;4.50;99.90
13802;DHT22;6972;51.518;6.918;2022-12-19T05:41:49;4.60;99.90
13802;DHT22;6972;51.518;6.918;2022-12-19T05:44:15;4.60;99.90
13802;DHT22;6972;51.518;6.918;2022-12-19T05:54:02;4.60;99.90
13802;DHT22;6972;51.518;6.918;2022-12-19T05:59:02;4.70;99.90
13802;DHT22;6972;51.518;6.918;2022-12-19T06:06:24;4.70;99.90
13802;DHT22;6972;51.518;6.918;2022-12-19T06:08:54;4.70;99.90
13802;DHT22;6972;51.518;6.918;2022-12-19T06:11:20;4.70;99.90
13802;DHT22;6972;51.518;6.918;2022-12-19T06:13:46;4.80;99.90
13802;DHT22;6972;51.518;6.918;2022-12-19T06:16:14;4.60;99.90
13802;DHT22;6972;51.518;6.918;2022-12-19T06:18:41;4.70;99.90
13802;DHT22;6972;51.518;6.918;2022-12-19T06:21:09;4.70;99.90
13802;DHT22;6972;51.518;6.918;2022-12-19T06:23:36;4.80;99.90
13802;DHT22;6972;51.518;6.918;2022-12-19T06:26:03;4.90;99.90
13802;DHT22;6972;51.518;6.918;2022-12-19T06:28:30;4.90;99.90
13802;DHT22;6972;51.518;6.918;2022-12-19T06:30:57;4.90;99.90
13802;DHT22;6972;51.518;6.918;2022-12-19T06:33:23;5.20;99.90
13802;DHT22;6972;51.518;6.918;2022-12-19T06:36:00;5.00;99.90
13802;DHT22;6972;51.518;6.918;2022-12-19T06:38:27;5.00;99.90
13802;DHT22;6972;51.518;6.918;2022-12-19T06:40:52;4.90;99.90
13802;DHT22;6972;51.518;6.918;2022-12-19T06:46:04;5.00;99.90
13802;DHT22;6972;51.518;6.918;2022-12-19T06:55:50;5.20;99.90
13802;DHT22;6972;51.518;6.918;2022-12-19T07:03:10;5.30;99.90
13802;DHT22;6972;51.518;6.918;2022-12-19T07:05:37;5.40;99.90
13802;DHT22;6972;51.518;6.918;2022-12-19T07:08:04;5.40;99.90
13802;DHT22;6972;51.518;6.918;2022-12-19T07:10:29;5.30;99.90
13802;DHT22;6972;51.518;6.918;2022-12-19T07:12:55;5.30;99.90
13802;DHT22;6972;51.518;6.918;2022-12-19T07:15:21;5.60;99.90
13802;DHT22;6972;51.518;6.918;2022-12-19T07:20:13;5.40;99.90
13802;DHT22;6972;51.518;6.918;2022-12-19T07:22:40;5.40;99.90
13802;DHT22;6972;51.518;6.918;2022-12-19T07:25:06;5.70;99.90
13802;DHT22;6972;51.518;6.918;2022-12-19T07:32:24;5.50;99.90
13802;DHT22;6972;51.518;6.918;2022-12-19T07:34:53;5.60;99.90
13802;DHT22;6972;51.518;6.918;2022-12-19T07:37:19;5.50;99.90
13802;DHT22;6972;51.518;6.918;2022-12-19T07:39:46;5.60;99.90
13802;DHT22;6972;51.518;6.918;2022-12-19T07:42:12;5.60;99.90
13802;DHT22;6972;51.518;6.918;2022-12-19T07:47:04;5.40;99.90
13802;DHT22;6972;51.518;6.918;2022-12-19T07:49:29;5.60;99.90
13802;DHT22;6972;51.518;6.918;2022-12-19T07:51:55;5.60;99.90
13802;DHT22;6972;51.518;6.918;2022-12-19T07:56:47;5.70;99.90
13802;DHT22;6972;51.518;6.918;2022-12-19T08:04:06;5.80;99.90
13802;DHT22;6972;51.518;6.918;2022-12-19T08:06:31;5.80;99.90
13802;DHT22;6972;51.518;6.918;2022-12-19T08:08:57;5.80;99.90
13802;DHT22;6972;51.518;6.918;2022-12-19T08:13:52;5.70;99.90
13802;DHT22;6972;51.518;6.918;2022-12-19T08:26:15;6.00;99.90
13802;DHT22;6972;51.518;6.918;2022-12-19T08:28:41;5.90;99.90
13802;DHT22;6972;51.518;6.918;2022-12-19T08:31:10;6.00;99.90
13802;DHT22;6972;51.518;6.918;2022-12-19T08:33:36;6.10;99.90
13802;DHT22;6972;51.518;6.918;2022-12-19T08:36:06;6.10;99.90
13802;DHT22;6972;51.518;6.918;2022-12-19T08:38:33;6.10;99.90
13802;DHT22;6972;51.518;6.918;2022-12-19T08:43:28;6.10;99.90
13802;DHT22;6972;51.518;6.918;2022-12-19T08:45:54;6.10;99.90
13802;DHT22;6972;51.518;6.918;2022-12-19T08:50:57;6.20;99.90
13802;DHT22;6972;51.518;6.918;2022-12-19T08:53:25;6.20;99.90
13802;DHT22;6972;51.518;6.918;2022-12-19T08:55:55;6.30;99.90
13802;DHT22;6972;51.518;6.918;2022-12-19T08:58:23;6.30;99.90
13802;DHT22;6972;51.518;6.918;2022-12-19T09:00:49;6.20;99.90
13802;DHT22;6972;51.518;6.918;2022-12-19T09:03:18;6.30;99.90
13802;DHT22;6972;51.518;6.918;2022-12-19T09:13:03;6.40;99.90
13802;DHT22;6972;51.518;6.918;2022-12-19T09:17:55;6.30;99.90
13802;DHT22;6972;51.518;6.918;2022-12-19T09:20:21;6.40;99.90
13802;DHT22;6972;51.518;6.918;2022-12-19T09:22:47;6.50;99.90
13802;DHT22;6972;51.518;6.918;2022-12-19T09:27:38;6.50;99.90
13802;DHT22;6972;51.518;6.918;2022-12-19T09:30:05;6.50;99.90
13802;DHT22;6972;51.518;6.918;2022-12-19T09:32:31;6.60;99.90
13802;DHT22;6972;51.518;6.918;2022-12-19T09:42:45;6.60;99.90
13802;DHT22;6972;51.518;6.918;2022-12-19T09:48:17;6.50;99.90
13802;DHT22;6972;51.518;6.918;2022-12-19T09:50:57;6.70;99.90
13802;DHT22;6972;51.518;6.918;2022-12-19T09:53:34;6.80;99.90
13802;DHT22;6972;51.518;6.918;2022-12-19T09:56:05;6.70;99.90
13802;DHT22;6972;51.518;6.918;2022-12-19T09:58:40;6.80;99.90
13802;DHT22;6972;51.518;6.918;2022-12-19T10:01:18;6.90;99.90
13802;DHT22;6972;51.518;6.918;2022-12-19T10:03:59;8.60;99.90
13802;DHT22;6972;51.518;6.918;2022-12-19T10:06:28;6.90;99.90
13802;DHT22;6972;51.518;6.918;2022-12-19T10:17:12;6.90;99.90
13802;DHT22;6972;51.518;6.918;2022-12-19T10:26:17;7.00;99.90
13802;DHT22;6972;51.518;6.918;2022-12-19T10:32:03;6.90;99.90
13802;DHT22;6972;51.518;6.918;2022-12-19T10:34:34;7.00;99.90
13802;DHT22;6972;51.518;6.918;2022-12-19T10:37:13;7.10;99.90
13802;DHT22;6972;51.518;6.918;2022-12-19T10:42:27;7.10;99.90
13802;DHT22;6972;51.518;6.918;2022-12-19T10:44:56;7.30;99.90
13802;DHT22;6972;51.518;6.918;2022-12-19T10:47:23;7.30;99.90
13802;DHT22;6972;51.518;6.918;2022-12-19T10:54:41;7.40;99.90
13802;DHT22;6972;51.518;6.918;2022-12-19T10:57:27;7.50;99.90
13802;DHT22;6972;51.518;6.918;2022-12-19T11:00:14;7.50;99.90
13802;DHT22;6972;51.518;6.918;2022-12-19T11:02:43;7.60;99.90
13802;DHT22;6972;51.518;6.918;2022-12-19T11:05:26;7.60;99.90
13802;DHT22;6972;51.518;6.918;2022-12-19T11:13:25;7.50;99.90
13802;DHT22;6972;51.518;6.918;2022-12-19T11:20:54;7.70;99.90
13802;DHT22;6972;51.518;6.918;2022-12-19T11:23:22;7.70;99.90
13802;DHT22;6972;51.518;6.918;2022-12-19T11:25:56;7.80;99.90
13802;DHT22;6972;51.518;6.918;2022-12-19T11:28:28;7.70;99.90
13802;DHT22;6972;51.518;6.918;2022-12-19T11:31:03;7.70;99.90
13802;DHT22;6972;51.518;6.918;2022-12-19T11:33:31;7.60;99.90
13802;DHT22;6972;51.518;6.918;2022-12-19T11:35:59;7.70;99.90
13802;DHT22;6972;51.518;6.918;2022-12-19T11:38:35;7.70;99.90
13802;DHT22;6972;51.518;6.918;2022-12-19T11:41:14;7.80;99.90
13802;DHT22;6972;51.518;6.918;2022-12-19T11:43:52;7.80;99.90
13802;DHT22;6972;51.518;6.918;2022-12-19T11:46:33;7.80;99.90
13802;DHT22;6972;51.518;6.918;2022-12-19T11:52:02;7.80;99.90
13802;DHT22;6972;51.518;6.918;2022-12-19T11:55:25;7.70;99.90
13802;DHT22;6972;51.518;6.918;2022-12-19T11:57:31;7.70;99.90
13802;DHT22;6972;51.518;6.918;2022-12-19T12:05:24;7.80;99.90
13802;DHT22;6972;51.518;6.918;2022-12-19T12:10:37;7.90;99.90
13802;DHT22;6972;51.518;6.918;2022-12-19T12:15:58;8.00;99.90
13802;DHT22;6972;51.518;6.918;2022-12-19T12:18:54;8.00;99.90
13802;DHT22;6972;51.518;6.918;2022-12-19T12:21:34;8.10;99.90
13802;DHT22;6972;51.518;6.918;2022-12-19T12:24:40;8.20;99.90
13802;DHT22;6972;51.518;6.918;2022-12-19T12:30:03;8.30;99.90
13802;DHT22;6972;51.518;6.918;2022-12-19T12:45:39;8.40;99.90
13802;DHT22;6972;51.518;6.918;2022-12-19T12:50:45;8.40;99.90
13802;DHT22;6972;51.518;6.918;2022-12-19T12:53:16;8.40;99.90
13802;DHT22;6972;51.518;6.918;2022-12-19T13:04:04;8.60;99.90
13802;DHT22;6972;51.518;6.918;2022-12-19T13:09:27;8.70;99.90
13802;DHT22;6972;51.518;6.918;2022-12-19T13:12:00;8.80;99.90
13802;DHT22;6972;51.518;6.918;2022-12-19T13:14:50;8.70;99.90
13802;DHT22;6972;51.518;6.918;2022-12-19T13:24:58;8.70;99.90
13802;DHT22;6972;51.518;6.918;2022-12-19T13:27:36;8.70;99.90
13802;DHT22;6972;51.518;6.918;2022-12-19T13:30:13;8.80;99.90
13802;DHT22;6972;51.518;6.918;2022-12-19T13:38:20;8.80;99.90
13802;DHT22;6972;51.518;6.918;2022-12-19T13:41:02;8.70;99.90
13802;DHT22;6972;51.518;6.918;2022-12-19T13:43:54;8.90;99.90
13802;DHT22;6972;51.518;6.918;2022-12-19T13:48:51;8.70;99.90
13802;DHT22;6972;51.518;6.918;2022-12-19T13:56:15;8.70;99.90
13802;DHT22;6972;51.518;6.918;2022-12-19T14:01:16;8.60;99.90
13802;DHT22;6972;51.518;6.918;2022-12-19T14:03:44;8.60;99.90
13802;DHT22;6972;51.518;6.918;2022-12-19T14:06:24;8.50;99.90
13802;DHT22;6972;51.518;6.918;2022-12-19T14:08:52;8.50;99.90
13802;DHT22;6972;51.518;6.918;2022-12-19T14:11:19;8.60;99.90
13802;DHT22;6972;51.518;6.918;2022-12-19T14:13:52;8.50;99.90
13802;DHT22;6972;51.518;6.918;2022-12-19T14:19:25;8.40;99.90
13802;DHT22;6972;51.518;6.918;2022-12-19T14:21:52;8.50;99.90
13802;DHT22;6972;51.518;6.918;2022-12-19T14:24:22;8.30;99.90
13802;DHT22;6972;51.518;6.918;2022-12-19T14:26:59;8.30;99.90
13802;DHT22;6972;51.518;6.918;2022-12-19T14:29:29;8.40;99.90
13802;DHT22;6972;51.518;6.918;2022-12-19T14:31:58;8.30;99.90
13802;DHT22;6972;51.518;6.918;2022-12-19T14:34:26;8.40;99.90
13802;DHT22;6972;51.518;6.918;2022-12-19T14:36:56;8.50;99.90
13802;DHT22;6972;51.518;6.918;2022-12-19T14:39:31;8.40;99.90
13802;DHT22;6972;51.518;6.918;2022-12-19T14:42:03;8.40;99.90
13802;DHT22;6972;51.518;6.918;2022-12-19T14:47:21;8.50;99.90
13802;DHT22;6972;51.518;6.918;2022-12-19T14:57:47;8.40;99.90
13802;DHT22;6972;51.518;6.918;2022-12-19T15:05:14;8.40;99.90
13802;DHT22;6972;51.518;6.918;2022-12-19T15:07:46;8.30;99.90
13802;DHT22;6972;51.518;6.918;2022-12-19T15:10:19;8.40;99.90
13802;DHT22;6972;51.518;6.918;2022-12-19T15:16:00;8.50;99.90
13802;DHT22;6972;51.518;6.918;2022-12-19T15:20:58;8.40;99.90
13802;DHT22;6972;51.518;6.918;2022-12-19T15:25:51;8.50;99.90
13802;DHT22;6972;51.518;6.918;2022-12-19T15:28:20;8.60;99.90
13802;DHT22;6972;51.518;6.918;2022-12-19T15:30:54;8.50;99.90
13802;DHT22;6972;51.518;6.918;2022-12-19T15:33:21;8.50;99.90
13802;DHT22;6972;51.518;6.918;2022-12-19T15:40:40;8.40;99.90
13802;DHT22;6972;51.518;6.918;2022-12-19T15:43:20;8.60;99.90
13802;DHT22;6972;51.518;6.918;2022-12-19T15:45:57;8.50;99.90
13802;DHT22;6972;51.518;6.918;2022-12-19T15:48:23;8.60;99.90
13802;DHT22;6972;51.518;6.918;2022-12-19T15:50:49;8.50;99.90
13802;DHT22;6972;51.518;6.918;2022-12-19T15:53:38;8.60;99.90
13802;DHT22;6972;51.518;6.918;2022-12-19T15:56:04;8.60;99.90
13802;DHT22;6972;51.518;6.918;2022-12-19T15:58:30;8.70;99.90
13802;DHT22;6972;51.518;6.918;2022-12-19T16:00:59;8.70;99.90
13802;DHT22;6972;51.518;6.918;2022-12-19T16:08:20;8.70;99.90
13802;DHT22;6972;51.518;6.918;2022-12-19T16:10:52;8.70;99.90
13802;DHT22;6972;51.518;6.918;2022-12-19T16:13:24;8.80;99.90
13802;DHT22;6972;51.518;6.918;2022-12-19T16:15:51;8.70;99.90
13802;DHT22;6972;51.518;6.918;2022-12-19T16:18:17;8.70;99.90
13802;DHT22;6972;51.518;6.918;2022-12-19T16:20:45;8.70;99.90
13802;DHT22;6972;51.518;6.918;2022-12-19T16:23:12;8.80;99.90
13802;DHT22;6972;51.518;6.918;2022-12-19T16:25:46;8.70;99.90
13802;DHT22;6972;51.518;6.918;2022-12-19T16:28:18;8.70;99.90
13802;DHT22;6972;51.518;6.918;2022-12-19T16:33:30;8.70;99.90
13802;DHT22;6972;51.518;6.918;2022-12-19T16:35:56;8.80;99.90
13802;DHT22;6972;51.518;6.918;2022-12-19T16:38:22;8.80;99.90
13802;DHT22;6972;51.518;6.918;2022-12-19T16:40:49;8.70;99.90
13802;DHT22;6972;51.518;6.918;2022-12-19T16:43:31;8.60;99.90
13802;DHT22;6972;51.518;6.918;2022-12-19T16:45:58;8.60;99.90
13802;DHT22;6972;51.518;6.918;2022-12-19T16:48:28;8.60;99.90
13802;DHT22;6972;51.518;6.918;2022-12-19T16:50:56;8.50;99.90
13802;DHT22;6972;51.518;6.918;2022-12-19T16:53:21;8.70;99.90
13802;DHT22;6972;51.518;6.918;2022-12-19T16:55:51;8.50;99.90
13802;DHT22;6972;51.518;6.918;2022-12-19T16:58:21;8.50;99.90
13802;DHT22;6972;51.518;6.918;2022-12-19T17:00:47;8.60;99.90
13802;DHT22;6972;51.518;6.918;2022-12-19T17:10:51;8.60;99.90
13802;DHT22;6972;51.518;6.918;2022-12-19T17:13:17;8.50;99.90
13802;DHT22;6972;51.518;6.918;2022-12-19T17:15:44;8.60;99.90
13802;DHT22;6972;51.518;6.918;2022-12-19T17:18:13;8.60;99.90
13802;DHT22;6972;51.518;6.918;2022-12-19T17:20:44;8.60;99.90
13802;DHT22;6972;51.518;6.918;2022-12-19T17:23:16;8.60;99.90
13802;DHT22;6972;51.518;6.918;2022-12-19T17:25:42;8.40;99.90
13802;DHT22;6972;51.518;6.918;2022-12-19T17:35:33;8.60;99.90
13802;DHT22;6972;51.518;6.918;2022-12-19T17:40:30;8.60;99.90
13802;DHT22;6972;51.518;6.918;2022-12-19T17:42:57;8.60;99.90
13802;DHT22;6972;51.518;6.918;2022-12-19T17:45:24;8.60;99.90
13802;DHT22;6972;51.518;6.918;2022-12-19T17:47:51;8.60;99.90
13802;DHT22;6972;51.518;6.918;2022-12-19T17:52:48;8.60;99.90
13802;DHT22;6972;51.518;6.918;2022-12-19T17:55:27;8.50;99.90
13802;DHT22;6972;51.518;6.918;2022-12-19T17:57:55;8.50;99.90
13802;DHT22;6972;51.518;6.918;2022-12-19T18:00:24;8.60;99.90
13802;DHT22;6972;51.518;6.918;2022-12-19T18:02:52;8.60;99.90
13802;DHT22;6972;51.518;6.918;2022-12-19T18:05:22;8.70;99.90
13802;DHT22;6972;51.518;6.918;2022-12-19T18:07:49;8.90;99.90
13802;DHT22;6972;51.518;6.918;2022-12-19T18:10:21;8.70;99.90
13802;DHT22;6972;51.518;6.918;2022-12-19T18:12:47;8.70;99.90
13802;DHT22;6972;51.518;6.918;2022-12-19T18:15:14;8.70;99.90
13802;DHT22;6972;51.518;6.918;2022-12-19T18:17:43;8.80;99.90
13802;DHT22;6972;51.518;6.918;2022-12-19T18:22:46;8.70;99.90
13802;DHT22;6972;51.518;6.918;2022-12-19T18:25:19;8.70;99.90
13802;DHT22;6972;51.518;6.918;2022-12-19T18:30:13;8.80;99.90
13802;DHT22;6972;51.518;6.918;2022-12-19T18:32:56;8.80;99.90
13802;DHT22;6972;51.518;6.918;2022-12-19T18:35:35;8.60;99.90
13802;DHT22;6972;51.518;6.918;2022-12-19T18:38:14;8.80;99.90
13802;DHT22;6972;51.518;6.918;2022-12-19T18:40:40;8.80;99.90
13802;DHT22;6972;51.518;6.918;2022-12-19T18:43:11;9.00;99.90
13802;DHT22;6972;51.518;6.918;2022-12-19T18:45:40;8.90;99.90
13802;DHT22;6972;51.518;6.918;2022-12-19T18:48:26;8.90;99.90
13802;DHT22;6972;51.518;6.918;2022-12-19T18:50:59;9.00;99.90
13802;DHT22;6972;51.518;6.918;2022-12-19T18:53:27;8.80;99.90
13802;DHT22;6972;51.518;6.918;2022-12-19T18:56:02;8.90;99.90
13802;DHT22;6972;51.518;6.918;2022-12-19T18:58:28;8.90;99.90
13802;DHT22;6972;51.518;6.918;2022-12-19T19:00:55;8.90;99.90
13802;DHT22;6972;51.518;6.918;2022-12-19T19:03:28;8.90;99.90
13802;DHT22;6972;51.518;6.918;2022-12-19T19:05:54;8.90;99.90
13802;DHT22;6972;51.518;6.918;2022-12-19T19:08:29;9.00;99.90
13802;DHT22;6972;51.518;6.918;2022-12-19T19:10:55;9.00;99.90
13802;DHT22;6972;51.518;6.918;2022-12-19T19:13:23;8.90;99.90
13802;DHT22;6972;51.518;6.918;2022-12-19T19:15:59;9.10;99.90
13802;DHT22;6972;51.518;6.918;2022-12-19T19:18:39;9.10;99.90
13802;DHT22;6972;51.518;6.918;2022-12-19T19:21:09;9.10;99.90
13802;DHT22;6972;51.518;6.918;2022-12-19T19:23:39;9.10;99.90
13802;DHT22;6972;51.518;6.918;2022-12-19T19:31:07;9.20;99.90
13802;DHT22;6972;51.518;6.918;2022-12-19T19:33:36;9.20;99.90
13802;DHT22;6972;51.518;6.918;2022-12-19T19:36:12;9.10;99.90
13802;DHT22;6972;51.518;6.918;2022-12-19T19:38:42;9.20;99.90
13802;DHT22;6972;51.518;6.918;2022-12-19T19:41:10;9.20;99.90
13802;DHT22;6972;51.518;6.918;2022-12-19T19:43:36;9.10;99.90
13802;DHT22;6972;51.518;6.918;2022-12-19T19:48:28;9.30;99.90
13802;DHT22;6972;51.518;6.918;2022-12-19T19:56:01;9.30;99.90
13802;DHT22;6972;51.518;6.918;2022-12-19T19:58:29;9.30;99.90
13802;DHT22;6972;51.518;6.918;2022-12-19T20:00:55;9.40;99.90
13802;DHT22;6972;51.518;6.918;2022-12-19T20:03:21;9.30;99.90
13802;DHT22;6972;51.518;6.918;2022-12-19T20:08:13;9.30;99.90
13802;DHT22;6972;51.518;6.918;2022-12-19T20:22:48;9.60;99.90
13802;DHT22;6972;51.518;6.918;2022-12-19T20:25:14;9.40;99.90
13802;DHT22;6972;51.518;6.918;2022-12-19T20:27:40;9.50;99.90
13802;DHT22;6972;51.518;6.918;2022-12-19T20:30:06;9.40;99.90
13802;DHT22;6972;51.518;6.918;2022-12-19T20:32:31;9.50;99.90
13802;DHT22;6972;51.518;6.918;2022-12-19T20:34:57;9.50;99.90
13802;DHT22;6972;51.518;6.918;2022-12-19T20:39:50;9.40;99.90
13802;DHT22;6972;51.518;6.918;2022-12-19T21:01:44;9.60;99.90
13802;DHT22;6972;51.518;6.918;2022-12-19T21:04:10;9.60;99.90
13802;DHT22;6972;51.518;6.918;2022-12-19T21:06:35;9.60;99.90
13802;DHT22;6972;51.518;6.918;2022-12-19T21:09:03;9.70;99.90
13802;DHT22;6972;51.518;6.918;2022-12-19T21:11:29;9.70;99.90
13802;DHT22;6972;51.518;6.918;2022-12-19T21:13:55;9.60;99.90
13802;DHT22;6972;51.518;6.918;2022-12-19T21:16:21;9.80;99.90
13802;DHT22;6972;51.518;6.918;2022-12-19T21:18:48;9.70;99.90
13802;DHT22;6972;51.518;6.918;2022-12-19T21:21:20;9.80;99.90
13802;DHT22;6972;51.518;6.918;2022-12-19T21:23:46;9.70;99.90
13802;DHT22;6972;51.518;6.918;2022-12-19T21:26:12;9.70;99.90
13802;DHT22;6972;51.518;6.918;2022-12-19T21:28:38;9.70;99.90
13802;DHT22;6972;51.518;6.918;2022-12-19T21:31:10;9.70;99.90
13802;DHT22;6972;51.518;6.918;2022-12-19T21:36:07;9.80;99.90
13802;DHT22;6972;51.518;6.918;2022-12-19T21:38:33;9.80;99.90
13802;DHT22;6972;51.518;6.918;2022-12-19T21:41:06;9.90;99.90
13802;DHT22;6972;51.518;6.918;2022-12-19T21:43:32;9.90;99.90
13802;DHT22;6972;51.518;6.918;2022-12-19T21:46:10;9.90;99.90
13802;DHT22;6972;51.518;6.918;2022-12-19T21:48:38;10.00;99.90
13802;DHT22;6972;51.518;6.918;2022-12-19T21:51:05;10.00;99.90
13802;DHT22;6972;51.518;6.918;2022-12-19T21:53:31;9.90;99.90
13802;DHT22;6972;51.518;6.918;2022-12-19T21:56:12;9.90;99.90
13802;DHT22;6972;51.518;6.918;2022-12-19T22:01:10;9.90;99.90
13802;DHT22;6972;51.518;6.918;2022-12-19T22:03:37;9.80;99.90
13802;DHT22;6972;51.518;6.918;2022-12-19T22:06:03;9.80;99.90
13802;DHT22;6972;51.518;6.918;2022-12-19T22:08:30;9.70;99.90
13802;DHT22;6972;51.518;6.918;2022-12-19T22:18:15;9.80;99.90
13802;DHT22;6972;51.518;6.918;2022-12-19T22:20:41;9.80;99.90
13802;DHT22;6972;51.518;6.918;2022-12-19T22:23:07;9.70;99.90
13802;DHT22;6972;51.518;6.918;2022-12-19T22:25:33;9.80;99.90
13802;DHT22;6972;51.518;6.918;2022-12-19T22:30:25;9.80;99.90
13802;DHT22;6972;51.518;6.918;2022-12-19T22:35:17;10.00;99.90
13802;DHT22;6972;51.518;6.918;2022-12-19T22:42:35;9.80;99.90
13802;DHT22;6972;51.518;6.918;2022-12-19T22:47:30;10.00;99.90
13802;DHT22;6972;51.518;6.918;2022-12-19T22:50:01;10.00;99.90
13802;DHT22;6972;51.518;6.918;2022-12-19T22:52:27;10.10;99.90
13802;DHT22;6972;51.518;6.918;2022-12-19T22:54:53;10.00;99.90
13802;DHT22;6972;51.518;6.918;2022-12-19T22:59:44;10.10;99.90
13802;DHT22;6972;51.518;6.918;2022-12-19T23:04:36;10.00;99.90
13802;DHT22;6972;51.518;6.918;2022-12-19T23:07:02;10.00;99.90
13802;DHT22;6972;51.518;6.918;2022-12-19T23:11:53;10.10;99.90
13802;DHT22;6972;51.518;6.918;2022-12-19T23:14:20;10.00;99.90
13802;DHT22;6972;51.518;6.918;2022-12-19T23:16:48;10.10;99.90
13802;DHT22;6972;51.518;6.918;2022-12-19T23:19:15;10.60;99.90
13802;DHT22;6972;51.518;6.918;2022-12-19T23:24:11;10.20;99.90
13802;DHT22;6972;51.518;6.918;2022-12-19T23:29:09;10.20;99.90
13802;DHT22;6972;51.518;6.918;2022-12-19T23:31:38;10.20;99.90
13802;DHT22;6972;51.518;6.918;2022-12-19T23:34:03;10.20;99.90